createdAt,value
2022-09-05T00:03:13.905Z,6.0
2022-09-05T00:08:13.726Z,8.4
2022-09-05T00:13:13.717Z,7.9
2022-09-05T00:22:09.541Z,6.0
2022-09-05T00:24:30.499Z,9.8
2022-09-05T00:28:25.617Z,6.7
2022-09-05T00:33:16.297Z,7.8
2022-09-05T00:38:13.735Z,7.3
2022-09-05T00:43:13.739Z,9.7
2022-09-05T00:48:13.734Z,8.4
2022-09-05T00:53:13.751Z,7.7
2022-09-05T00:58:13.746Z,7.9
2022-09-05T01:03:13.786Z,7.3
2022-09-05T01:08:13.747Z,6.5
2022-09-05T01:13:13.754Z,7.1
2022-09-05T01:18:13.756Z,7.4
2022-09-05T01:23:13.759Z,6.2
2022-09-05T01:29:16.637Z,7.5
2022-09-05T01:33:13.756Z,6.5
2022-09-05T01:38:13.782Z,7.4
2022-09-05T01:43:13.765Z,8.7
2022-09-05T01:48:13.770Z,7.4
2022-09-05T01:53:13.772Z,8.9
2022-09-05T01:58:13.774Z,10.8
2022-09-05T02:03:13.843Z,8.2
2022-09-05T02:08:13.791Z,7.1
2022-09-05T02:13:13.779Z,10.4
2022-09-05T02:18:13.788Z,7.3
2022-09-05T02:23:37.631Z,7.1
2022-09-05T02:28:13.787Z,7.3
2022-09-05T02:33:13.790Z,12.1
2022-09-05T02:41:10.735Z,8.4
2022-09-05T02:45:19.265Z,8.0
2022-09-05T02:48:15.090Z,8.2
2022-09-05T02:57:26.265Z,7.2
2022-09-05T02:58:14.195Z,8.6
2022-09-05T03:03:13.871Z,9.3
2022-09-05T03:08:13.802Z,7.7
2022-09-05T03:13:13.808Z,7.8
2022-09-05T03:18:20.042Z,6.2
2022-09-05T03:23:13.808Z,6.1
2022-09-05T03:28:13.815Z,9.4
2022-09-05T03:33:13.821Z,10.7
2022-09-05T03:38:13.823Z,9.5
2022-09-05T03:43:13.829Z,13.6
2022-09-05T03:48:24.674Z,11.8
2022-09-05T03:57:17.194Z,9.3
2022-09-05T03:58:16.734Z,9.3
2022-09-05T04:07:06.305Z,9.5
2022-09-05T04:08:41.837Z,12.3
2022-09-05T04:13:13.838Z,12.0
2022-09-05T04:18:13.841Z,8.5
2022-09-05T04:23:13.849Z,9.9
2022-09-05T04:28:13.845Z,11.5
2022-09-05T04:33:13.851Z,13.1
2022-09-05T04:38:13.855Z,17.7
2022-09-05T04:43:13.859Z,7.9
2022-09-05T04:48:13.852Z,8.8
2022-09-05T04:53:13.948Z,8.3
2022-09-05T04:58:13.868Z,9.5
2022-09-05T05:06:08.917Z,9.9
2022-09-05T05:08:13.975Z,13.5
2022-09-05T05:17:59.705Z,10.3
2022-09-05T05:18:42.335Z,10.7
2022-09-05T05:23:13.877Z,11.2
2022-09-05T05:28:22.773Z,13.8
2022-09-05T05:33:13.883Z,12.3
2022-09-05T05:38:13.882Z,9.8
2022-09-05T05:43:13.889Z,11.1
2022-09-05T05:48:13.890Z,12.8
2022-09-05T05:53:28.861Z,13.4
2022-09-05T05:58:13.902Z,21.3
2022-09-05T06:03:26.326Z,12.5
2022-09-05T06:11:20.422Z,14.4
2022-09-05T06:14:55.647Z,13.7
2022-09-05T06:18:13.914Z,14.3
2022-09-05T06:23:36.575Z,16.3
2022-09-05T06:28:19.012Z,14.7
2022-09-05T06:33:13.931Z,18.0
2022-09-05T06:38:13.934Z,17.5
2022-09-05T06:43:13.947Z,18.1
2022-09-05T06:48:19.835Z,13.3
2022-09-05T06:53:19.918Z,13.6
2022-09-05T06:58:13.961Z,13.1
2022-09-05T07:03:14.016Z,15.4
2022-09-05T07:08:34.717Z,13.8
2022-09-05T07:13:13.982Z,14.9
2022-09-05T07:23:57.818Z,11.1
2022-09-05T07:28:29.310Z,11.0
2022-09-05T07:33:14.010Z,10.3
2022-09-05T07:38:14.015Z,12.3
2022-09-05T07:43:18.215Z,13.1
2022-09-05T07:48:14.025Z,10.6
2022-09-05T07:57:10.212Z,11.6
2022-09-05T07:58:14.027Z,10.9
2022-09-05T08:03:14.029Z,14.3
2022-09-05T08:08:14.038Z,13.5
2022-09-05T08:13:33.979Z,18.8
2022-09-05T08:18:13.947Z,17.6
2022-09-05T08:23:13.960Z,9.8
2022-09-05T08:28:13.955Z,11.1
2022-09-05T08:33:13.964Z,7.8
2022-09-05T08:38:13.969Z,6.1
2022-09-05T08:46:35.160Z,5.1
2022-09-05T08:48:13.974Z,5.5
2022-09-05T08:53:26.737Z,6.5
2022-09-05T08:58:13.987Z,7.5
2022-09-05T09:03:14.029Z,8.3
2022-09-05T09:08:15.737Z,6.1
2022-09-05T09:13:13.997Z,7.7
2022-09-05T09:18:14.001Z,4.7
2022-09-05T09:23:32.436Z,3.1
2022-09-05T09:28:47.550Z,5.2
2022-09-05T09:33:14.015Z,4.4
2022-09-05T09:38:14.030Z,3.3
2022-09-05T09:43:14.025Z,3.4
2022-09-05T09:48:14.033Z,4.5
2022-09-05T09:53:14.029Z,3.3
2022-09-05T09:58:14.039Z,2.9
2022-09-05T10:06:00.311Z,3.0
2022-09-05T10:11:22.735Z,4.4
2022-09-05T10:13:14.046Z,2.6
2022-09-05T10:18:14.046Z,2.5
2022-09-05T10:23:14.064Z,1.7
2022-09-05T10:28:14.063Z,2.6
2022-09-05T10:35:16.996Z,5.3
2022-09-05T10:38:14.071Z,1.9
2022-09-05T10:43:14.081Z,2.2
2022-09-05T10:48:14.224Z,2.0
2022-09-05T10:53:14.080Z,2.0
2022-09-05T10:58:14.084Z,1.7
2022-09-05T11:03:22.630Z,2.1
2022-09-05T11:08:14.097Z,2.7
2022-09-05T11:13:14.102Z,1.7
2022-09-05T11:18:14.102Z,1.9
2022-09-05T11:23:14.102Z,1.6
2022-09-05T11:28:14.108Z,1.9
2022-09-05T11:39:48.798Z,1.3
2022-09-05T11:40:04.534Z,2.7
2022-09-05T11:43:14.118Z,2.7
2022-09-05T11:48:14.121Z,1.9
2022-09-05T11:53:14.121Z,1.8
2022-09-05T11:58:29.656Z,1.5
2022-09-05T12:03:57.480Z,3.7
2022-09-05T12:08:14.141Z,2.1
2022-09-05T12:13:14.139Z,1.5
2022-09-05T12:18:24.131Z,1.7
2022-09-05T12:23:27.625Z,2.5
2022-09-05T12:29:09.564Z,1.7
2022-09-05T12:36:01.425Z,1.9
2022-09-05T12:40:43.289Z,1.8
2022-09-05T12:43:52.670Z,2.0
2022-09-05T12:48:14.169Z,1.9
2022-09-05T12:53:14.164Z,1.9
2022-09-05T13:02:57.295Z,1.6
2022-09-05T13:03:27.904Z,1.7
2022-09-05T13:08:14.175Z,2.6
2022-09-05T13:14:54.909Z,1.6
2022-09-05T13:18:14.189Z,1.4
2022-09-05T13:23:14.188Z,1.7
2022-09-05T13:28:14.198Z,2.0
2022-09-05T13:38:04.293Z,1.3
2022-09-05T13:38:29.468Z,2.8
2022-09-05T13:43:14.211Z,1.6
2022-09-05T13:48:14.213Z,3.3
2022-09-05T13:53:15.594Z,1.2
2022-09-05T13:58:14.211Z,1.9
2022-09-05T14:08:14.220Z,1.7
2022-09-05T14:13:14.236Z,2.4
2022-09-05T14:18:20.274Z,1.7
2022-09-05T14:23:15.260Z,2.5
2022-09-05T14:28:14.239Z,2.9
2022-09-05T14:37:55.498Z,4.1
2022-09-05T14:38:15.788Z,2.5
2022-09-05T14:43:14.247Z,1.5
2022-09-05T14:48:14.246Z,2.3
2022-09-05T15:02:43.423Z,2.0
2022-09-05T15:03:14.680Z,1.5
2022-09-05T15:09:21.391Z,1.7
2022-09-05T15:13:14.255Z,1.8
2022-09-05T15:18:14.258Z,2.1
2022-09-05T15:23:16.722Z,2.0
2022-09-05T15:28:14.260Z,2.0
2022-09-05T15:33:14.273Z,3.9
2022-09-05T15:38:14.264Z,4.1
2022-09-05T15:43:14.273Z,1.3
2022-09-05T15:48:15.384Z,5.2
2022-09-05T15:53:14.270Z,2.0
2022-09-05T15:58:14.275Z,2.2
2022-09-05T16:04:14.202Z,2.6
2022-09-05T16:10:38.137Z,3.1
2022-09-05T16:13:14.283Z,4.8
2022-09-05T16:23:16.571Z,1.7
2022-09-05T16:23:39.487Z,2.8
2022-09-05T16:28:14.286Z,2.9
2022-09-05T16:33:14.288Z,2.0
2022-09-05T16:38:14.287Z,2.2
2022-09-05T16:43:14.290Z,2.3
2022-09-05T16:48:14.294Z,3.8
2022-09-05T16:53:29.508Z,2.9
2022-09-05T16:58:14.787Z,3.7
2022-09-05T17:03:14.296Z,2.0
2022-09-05T17:08:14.298Z,2.6
2022-09-05T17:13:16.597Z,2.0
2022-09-05T17:18:20.442Z,3.3
2022-09-05T17:29:15.124Z,3.2
2022-09-05T17:29:26.822Z,4.6
2022-09-05T17:33:14.302Z,4.9
2022-09-05T17:38:14.299Z,7.6
2022-09-05T17:43:22.699Z,6.6
2022-09-05T17:48:14.319Z,8.6
2022-09-05T17:53:25.197Z,4.4
2022-09-05T17:58:14.314Z,5.7
2022-09-05T18:03:14.309Z,6.5
2022-09-05T18:08:14.314Z,6.2
2022-09-05T18:13:32.398Z,9.6
2022-09-05T18:23:16.636Z,9.0
2022-09-05T18:28:14.318Z,8.7
2022-09-05T18:33:54.043Z,4.0
2022-09-05T18:38:14.323Z,6.4
2022-09-05T18:43:14.326Z,10.2
2022-09-05T18:48:14.324Z,10.0
2022-09-05T18:53:14.341Z,9.6
2022-09-05T18:58:14.333Z,13.6
2022-09-05T19:03:14.379Z,12.0
2022-09-05T19:08:28.874Z,6.9
2022-09-05T19:13:15.471Z,4.6
2022-09-05T19:18:25.999Z,4.7
2022-09-05T19:23:14.446Z,6.9
2022-09-05T19:36:59.757Z,7.5
2022-09-05T19:37:11.976Z,8.1
2022-09-05T19:38:14.473Z,5.6
2022-09-05T19:47:37.064Z,6.1
2022-09-05T19:48:14.862Z,2.8
2022-09-05T19:53:14.454Z,4.4
2022-09-05T19:58:29.540Z,2.6
2022-09-05T20:03:14.465Z,3.9
2022-09-05T20:08:14.468Z,4.9
2022-09-05T20:13:14.467Z,5.0
2022-09-05T20:18:14.472Z,4.3
2022-09-05T20:23:14.479Z,3.6
2022-09-05T20:28:14.480Z,5.4
2022-09-05T20:33:14.480Z,11.8
2022-09-05T20:43:18.586Z,19.4
2022-09-05T20:54:09.235Z,5.2
2022-09-05T20:54:14.080Z,6.6
2022-09-05T20:58:14.498Z,5.2
2022-09-05T21:03:17.954Z,5.1
2022-09-05T21:08:14.498Z,3.6
2022-09-05T21:13:14.494Z,4.7
2022-09-05T21:18:14.507Z,3.8
2022-09-05T21:23:14.531Z,3.4
2022-09-05T21:28:14.507Z,6.1
2022-09-05T21:33:15.988Z,4.4
2022-09-05T21:38:14.524Z,2.8
2022-09-05T21:46:53.519Z,3.2
2022-09-05T21:48:14.597Z,3.9
2022-09-05T21:56:12.181Z,4.7
2022-09-05T21:59:26.036Z,8.9
2022-09-05T22:03:18.615Z,5.4
2022-09-05T22:08:14.528Z,4.4
2022-09-05T22:13:14.525Z,3.0
2022-09-05T22:18:17.823Z,2.4
2022-09-05T22:23:14.537Z,3.0
2022-09-05T22:28:14.540Z,7.2
2022-09-05T22:33:14.535Z,4.1
2022-09-05T22:38:19.764Z,2.6
2022-09-05T22:43:14.543Z,2.4
2022-09-05T22:48:14.559Z,5.8
2022-09-05T22:53:14.543Z,2.3
2022-09-05T22:58:14.548Z,6.2
2022-09-05T23:03:14.557Z,2.2
2022-09-05T23:08:14.557Z,2.9
2022-09-05T23:13:14.566Z,2.3
2022-09-05T23:18:14.559Z,3.5
2022-09-05T23:23:14.570Z,3.7
2022-09-05T23:28:14.568Z,3.0
2022-09-05T23:33:14.570Z,4.8
2022-09-05T23:38:14.579Z,4.4
2022-09-05T23:43:14.572Z,4.3
2022-09-05T23:48:14.575Z,5.2
2022-09-05T23:53:14.581Z,2.7
2022-09-05T23:58:14.577Z,3.5
